sensor_id;sensor_type;location;lat;lon;timestamp;P1;durP1;ratioP1;P2;durP2;ratioP2
59416;SDS011;45222;52.458;20.914;2023-07-28T00:02:14;7.90;;;3.70;;
59416;SDS011;45222;52.458;20.914;2023-07-28T00:05:59;5.90;;;3.40;;
59416;SDS011;45222;52.458;20.914;2023-07-28T00:09:44;9.00;;;3.80;;
59416;SDS011;45222;52.458;20.914;2023-07-28T00:13:29;8.40;;;3.90;;
59416;SDS011;45222;52.458;20.914;2023-07-28T00:17:14;7.10;;;3.60;;
59416;SDS011;45222;52.458;20.914;2023-07-28T00:21:00;7.50;;;4.00;;
59416;SDS011;45222;52.458;20.914;2023-07-28T00:24:45;7.80;;;3.90;;
59416;SDS011;45222;52.458;20.914;2023-07-28T00:28:30;7.10;;;3.70;;
59416;SDS011;45222;52.458;20.914;2023-07-28T00:32:15;8.60;;;3.80;;
59416;SDS011;45222;52.458;20.914;2023-07-28T00:36:00;6.90;;;3.70;;
59416;SDS011;45222;52.458;20.914;2023-07-28T00:39:45;8.40;;;4.10;;
59416;SDS011;45222;52.458;20.914;2023-07-28T00:43:31;7.20;;;3.90;;
59416;SDS011;45222;52.458;20.914;2023-07-28T00:47:16;7.60;;;3.90;;
59416;SDS011;45222;52.458;20.914;2023-07-28T00:51:01;8.00;;;4.10;;
59416;SDS011;45222;52.458;20.914;2023-07-28T00:54:47;9.00;;;3.80;;
59416;SDS011;45222;52.458;20.914;2023-07-28T00:58:32;7.30;;;4.20;;
59416;SDS011;45222;52.458;20.914;2023-07-28T01:02:17;10.10;;;4.50;;
59416;SDS011;45222;52.458;20.914;2023-07-28T01:06:06;8.70;;;4.10;;
59416;SDS011;45222;52.458;20.914;2023-07-28T01:10:01;8.60;;;4.60;;
59416;SDS011;45222;52.458;20.914;2023-07-28T01:13:49;7.60;;;3.70;;
59416;SDS011;45222;52.458;20.914;2023-07-28T01:17:34;8.80;;;4.20;;
59416;SDS011;45222;52.458;20.914;2023-07-28T01:21:20;8.20;;;4.30;;
59416;SDS011;45222;52.458;20.914;2023-07-28T01:25:11;9.80;;;4.70;;
59416;SDS011;45222;52.458;20.914;2023-07-28T01:29:02;10.80;;;5.30;;
59416;SDS011;45222;52.458;20.914;2023-07-28T01:32:48;9.70;;;5.20;;
59416;SDS011;45222;52.458;20.914;2023-07-28T01:36:33;8.70;;;4.60;;
59416;SDS011;45222;52.458;20.914;2023-07-28T01:40:18;8.90;;;5.10;;
59416;SDS011;45222;52.458;20.914;2023-07-28T01:44:04;10.20;;;5.10;;
59416;SDS011;45222;52.458;20.914;2023-07-28T01:47:49;9.40;;;5.00;;
59416;SDS011;45222;52.458;20.914;2023-07-28T01:51:34;9.10;;;4.80;;
59416;SDS011;45222;52.458;20.914;2023-07-28T01:55:19;8.60;;;4.50;;
59416;SDS011;45222;52.458;20.914;2023-07-28T01:59:04;9.20;;;5.40;;
59416;SDS011;45222;52.458;20.914;2023-07-28T02:02:50;8.40;;;4.90;;
59416;SDS011;45222;52.458;20.914;2023-07-28T02:06:35;8.60;;;5.20;;
59416;SDS011;45222;52.458;20.914;2023-07-28T02:10:21;10.10;;;5.40;;
59416;SDS011;45222;52.458;20.914;2023-07-28T02:14:07;10.00;;;5.30;;
59416;SDS011;45222;52.458;20.914;2023-07-28T02:17:52;9.80;;;5.50;;
59416;SDS011;45222;52.458;20.914;2023-07-28T02:21:37;8.90;;;4.80;;
59416;SDS011;45222;52.458;20.914;2023-07-28T02:25:22;9.00;;;5.50;;
59416;SDS011;45222;52.458;20.914;2023-07-28T02:29:08;9.60;;;5.40;;
59416;SDS011;45222;52.458;20.914;2023-07-28T02:32:53;10.50;;;5.10;;
59416;SDS011;45222;52.458;20.914;2023-07-28T02:36:38;10.10;;;4.50;;
59416;SDS011;45222;52.458;20.914;2023-07-28T02:40:23;8.20;;;5.00;;
59416;SDS011;45222;52.458;20.914;2023-07-28T02:44:08;8.60;;;5.00;;
59416;SDS011;45222;52.458;20.914;2023-07-28T02:47:54;11.60;;;5.50;;
59416;SDS011;45222;52.458;20.914;2023-07-28T02:51:39;10.20;;;5.30;;
59416;SDS011;45222;52.458;20.914;2023-07-28T02:55:25;8.00;;;4.80;;
59416;SDS011;45222;52.458;20.914;2023-07-28T02:59:10;9.50;;;4.90;;
59416;SDS011;45222;52.458;20.914;2023-07-28T03:02:55;7.90;;;4.70;;
59416;SDS011;45222;52.458;20.914;2023-07-28T03:06:40;8.60;;;4.60;;
59416;SDS011;45222;52.458;20.914;2023-07-28T03:10:25;10.80;;;4.90;;
59416;SDS011;45222;52.458;20.914;2023-07-28T03:14:10;8.00;;;5.10;;
59416;SDS011;45222;52.458;20.914;2023-07-28T03:17:56;8.30;;;4.90;;
59416;SDS011;45222;52.458;20.914;2023-07-28T03:21:41;10.40;;;5.10;;
59416;SDS011;45222;52.458;20.914;2023-07-28T03:25:26;8.20;;;4.70;;
59416;SDS011;45222;52.458;20.914;2023-07-28T03:29:11;7.80;;;4.80;;
59416;SDS011;45222;52.458;20.914;2023-07-28T03:32:56;10.80;;;5.10;;
59416;SDS011;45222;52.458;20.914;2023-07-28T03:36:41;9.60;;;5.80;;
59416;SDS011;45222;52.458;20.914;2023-07-28T03:40:26;9.50;;;5.90;;
59416;SDS011;45222;52.458;20.914;2023-07-28T03:44:11;15.40;;;6.30;;
59416;SDS011;45222;52.458;20.914;2023-07-28T03:47:56;12.70;;;6.30;;
59416;SDS011;45222;52.458;20.914;2023-07-28T03:51:42;8.80;;;5.50;;
59416;SDS011;45222;52.458;20.914;2023-07-28T03:55:27;9.60;;;5.50;;
59416;SDS011;45222;52.458;20.914;2023-07-28T03:59:12;11.20;;;5.60;;
59416;SDS011;45222;52.458;20.914;2023-07-28T04:02:57;9.10;;;5.50;;
59416;SDS011;45222;52.458;20.914;2023-07-28T04:06:42;9.40;;;5.70;;
59416;SDS011;45222;52.458;20.914;2023-07-28T04:10:28;11.60;;;5.10;;
59416;SDS011;45222;52.458;20.914;2023-07-28T04:14:14;9.20;;;5.30;;
59416;SDS011;45222;52.458;20.914;2023-07-28T04:17:59;8.40;;;5.30;;
59416;SDS011;45222;52.458;20.914;2023-07-28T04:21:44;9.80;;;5.40;;
59416;SDS011;45222;52.458;20.914;2023-07-28T04:25:32;7.80;;;5.40;;
59416;SDS011;45222;52.458;20.914;2023-07-28T04:29:20;11.00;;;5.70;;
59416;SDS011;45222;52.458;20.914;2023-07-28T04:33:06;10.20;;;5.60;;
59416;SDS011;45222;52.458;20.914;2023-07-28T04:36:51;10.00;;;5.10;;
59416;SDS011;45222;52.458;20.914;2023-07-28T04:40:39;10.80;;;5.30;;
59416;SDS011;45222;52.458;20.914;2023-07-28T04:44:24;9.30;;;5.20;;
59416;SDS011;45222;52.458;20.914;2023-07-28T04:48:09;8.00;;;5.00;;
59416;SDS011;45222;52.458;20.914;2023-07-28T04:51:54;9.50;;;5.80;;
59416;SDS011;45222;52.458;20.914;2023-07-28T04:55:39;9.90;;;5.10;;
59416;SDS011;45222;52.458;20.914;2023-07-28T04:59:24;9.60;;;5.30;;
59416;SDS011;45222;52.458;20.914;2023-07-28T05:03:11;11.40;;;5.20;;
59416;SDS011;45222;52.458;20.914;2023-07-28T05:06:57;8.90;;;5.60;;
59416;SDS011;45222;52.458;20.914;2023-07-28T05:10:43;9.90;;;5.80;;
59416;SDS011;45222;52.458;20.914;2023-07-28T05:14:28;9.40;;;5.50;;
59416;SDS011;45222;52.458;20.914;2023-07-28T05:18:13;9.70;;;5.30;;
59416;SDS011;45222;52.458;20.914;2023-07-28T05:21:59;9.30;;;4.90;;
59416;SDS011;45222;52.458;20.914;2023-07-28T05:25:44;9.00;;;4.60;;
59416;SDS011;45222;52.458;20.914;2023-07-28T05:29:29;9.10;;;4.80;;
59416;SDS011;45222;52.458;20.914;2023-07-28T05:33:14;8.70;;;4.80;;
59416;SDS011;45222;52.458;20.914;2023-07-28T05:36:59;7.70;;;4.90;;
59416;SDS011;45222;52.458;20.914;2023-07-28T05:40:44;8.70;;;4.70;;
59416;SDS011;45222;52.458;20.914;2023-07-28T05:44:30;9.90;;;4.60;;
59416;SDS011;45222;52.458;20.914;2023-07-28T05:48:15;7.30;;;4.80;;
59416;SDS011;45222;52.458;20.914;2023-07-28T05:52:00;8.30;;;4.70;;
59416;SDS011;45222;52.458;20.914;2023-07-28T05:55:46;9.30;;;4.50;;
59416;SDS011;45222;52.458;20.914;2023-07-28T05:59:31;7.40;;;4.30;;
59416;SDS011;45222;52.458;20.914;2023-07-28T06:03:16;9.10;;;4.20;;
59416;SDS011;45222;52.458;20.914;2023-07-28T06:07:01;7.50;;;4.60;;
59416;SDS011;45222;52.458;20.914;2023-07-28T06:10:47;9.00;;;4.20;;
59416;SDS011;45222;52.458;20.914;2023-07-28T06:14:32;8.50;;;4.70;;
59416;SDS011;45222;52.458;20.914;2023-07-28T06:18:17;11.00;;;4.60;;
59416;SDS011;45222;52.458;20.914;2023-07-28T06:22:02;8.50;;;4.90;;
59416;SDS011;45222;52.458;20.914;2023-07-28T06:25:48;6.70;;;4.20;;
59416;SDS011;45222;52.458;20.914;2023-07-28T06:29:34;7.60;;;4.00;;
59416;SDS011;45222;52.458;20.914;2023-07-28T06:33:22;8.50;;;4.40;;
59416;SDS011;45222;52.458;20.914;2023-07-28T06:37:15;9.10;;;4.30;;
59416;SDS011;45222;52.458;20.914;2023-07-28T06:41:06;8.10;;;4.30;;
59416;SDS011;45222;52.458;20.914;2023-07-28T06:44:56;8.10;;;4.10;;
59416;SDS011;45222;52.458;20.914;2023-07-28T06:48:41;9.10;;;4.70;;
59416;SDS011;45222;52.458;20.914;2023-07-28T06:52:26;8.20;;;4.20;;
59416;SDS011;45222;52.458;20.914;2023-07-28T06:56:12;8.00;;;4.00;;
59416;SDS011;45222;52.458;20.914;2023-07-28T06:59:58;7.90;;;3.90;;
59416;SDS011;45222;52.458;20.914;2023-07-28T07:03:46;7.40;;;4.10;;
59416;SDS011;45222;52.458;20.914;2023-07-28T07:07:32;9.10;;;4.10;;
59416;SDS011;45222;52.458;20.914;2023-07-28T07:11:17;7.10;;;4.20;;
59416;SDS011;45222;52.458;20.914;2023-07-28T07:15:02;8.50;;;4.10;;
59416;SDS011;45222;52.458;20.914;2023-07-28T07:18:51;8.10;;;4.00;;
59416;SDS011;45222;52.458;20.914;2023-07-28T07:22:36;24.70;;;8.20;;
59416;SDS011;45222;52.458;20.914;2023-07-28T07:26:21;193.80;;;40.60;;
59416;SDS011;45222;52.458;20.914;2023-07-28T07:30:08;88.60;;;21.90;;
59416;SDS011;45222;52.458;20.914;2023-07-28T07:33:54;21.10;;;6.80;;
59416;SDS011;45222;52.458;20.914;2023-07-28T07:37:39;14.50;;;5.00;;
59416;SDS011;45222;52.458;20.914;2023-07-28T07:41:24;6.50;;;3.60;;
59416;SDS011;45222;52.458;20.914;2023-07-28T07:45:11;7.60;;;4.00;;
59416;SDS011;45222;52.458;20.914;2023-07-28T07:48:56;7.10;;;4.30;;
59416;SDS011;45222;52.458;20.914;2023-07-28T07:52:42;7.20;;;4.20;;
59416;SDS011;45222;52.458;20.914;2023-07-28T07:56:27;9.70;;;4.40;;
59416;SDS011;45222;52.458;20.914;2023-07-28T08:00:14;8.10;;;4.30;;
59416;SDS011;45222;52.458;20.914;2023-07-28T08:04:00;7.50;;;4.20;;
59416;SDS011;45222;52.458;20.914;2023-07-28T08:07:45;7.70;;;3.90;;
59416;SDS011;45222;52.458;20.914;2023-07-28T08:11:31;7.80;;;4.10;;
59416;SDS011;45222;52.458;20.914;2023-07-28T08:15:16;6.80;;;4.10;;
59416;SDS011;45222;52.458;20.914;2023-07-28T08:19:01;10.40;;;4.60;;
59416;SDS011;45222;52.458;20.914;2023-07-28T08:22:48;7.70;;;4.30;;
59416;SDS011;45222;52.458;20.914;2023-07-28T08:26:33;7.40;;;4.00;;
59416;SDS011;45222;52.458;20.914;2023-07-28T08:30:19;7.10;;;3.90;;
59416;SDS011;45222;52.458;20.914;2023-07-28T08:34:04;7.30;;;4.00;;
59416;SDS011;45222;52.458;20.914;2023-07-28T08:37:49;7.50;;;3.90;;
59416;SDS011;45222;52.458;20.914;2023-07-28T08:41:35;6.90;;;4.00;;
59416;SDS011;45222;52.458;20.914;2023-07-28T08:45:20;8.00;;;4.40;;
59416;SDS011;45222;52.458;20.914;2023-07-28T08:49:07;7.90;;;4.60;;
59416;SDS011;45222;52.458;20.914;2023-07-28T08:52:52;8.00;;;4.20;;
59416;SDS011;45222;52.458;20.914;2023-07-28T08:56:40;8.20;;;4.40;;
59416;SDS011;45222;52.458;20.914;2023-07-28T09:00:26;6.40;;;3.80;;
59416;SDS011;45222;52.458;20.914;2023-07-28T09:04:14;9.50;;;4.10;;
59416;SDS011;45222;52.458;20.914;2023-07-28T09:07:59;7.20;;;4.00;;
59416;SDS011;45222;52.458;20.914;2023-07-28T09:11:45;7.10;;;4.10;;
59416;SDS011;45222;52.458;20.914;2023-07-28T09:15:33;7.10;;;3.90;;
59416;SDS011;45222;52.458;20.914;2023-07-28T09:19:20;7.60;;;3.90;;
59416;SDS011;45222;52.458;20.914;2023-07-28T09:23:06;7.80;;;3.70;;
59416;SDS011;45222;52.458;20.914;2023-07-28T09:26:52;7.10;;;3.90;;
59416;SDS011;45222;52.458;20.914;2023-07-28T09:30:45;7.60;;;3.80;;
59416;SDS011;45222;52.458;20.914;2023-07-28T09:34:32;7.20;;;3.80;;
59416;SDS011;45222;52.458;20.914;2023-07-28T09:38:18;9.30;;;4.40;;
59416;SDS011;45222;52.458;20.914;2023-07-28T09:42:05;7.60;;;4.20;;
59416;SDS011;45222;52.458;20.914;2023-07-28T09:45:52;9.00;;;4.70;;
59416;SDS011;45222;52.458;20.914;2023-07-28T09:49:39;8.00;;;4.60;;
59416;SDS011;45222;52.458;20.914;2023-07-28T09:53:31;7.80;;;4.70;;
59416;SDS011;45222;52.458;20.914;2023-07-28T09:57:20;7.60;;;4.80;;
59416;SDS011;45222;52.458;20.914;2023-07-28T10:01:07;9.10;;;4.70;;
59416;SDS011;45222;52.458;20.914;2023-07-28T10:04:54;7.40;;;4.60;;
59416;SDS011;45222;52.458;20.914;2023-07-28T10:08:40;8.10;;;5.10;;
59416;SDS011;45222;52.458;20.914;2023-07-28T10:12:26;10.20;;;5.30;;
59416;SDS011;45222;52.458;20.914;2023-07-28T10:16:12;7.40;;;4.80;;
59416;SDS011;45222;52.458;20.914;2023-07-28T10:19:58;9.00;;;5.40;;
59416;SDS011;45222;52.458;20.914;2023-07-28T10:23:43;7.50;;;5.00;;
59416;SDS011;45222;52.458;20.914;2023-07-28T10:27:31;9.10;;;5.50;;
59416;SDS011;45222;52.458;20.914;2023-07-28T10:31:19;9.10;;;5.40;;
59416;SDS011;45222;52.458;20.914;2023-07-28T10:35:22;8.90;;;5.90;;
59416;SDS011;45222;52.458;20.914;2023-07-28T10:39:13;9.50;;;5.90;;
59416;SDS011;45222;52.458;20.914;2023-07-28T10:43:00;9.40;;;5.70;;
59416;SDS011;45222;52.458;20.914;2023-07-28T10:46:46;9.20;;;5.80;;
59416;SDS011;45222;52.458;20.914;2023-07-28T10:50:31;8.40;;;5.40;;
59416;SDS011;45222;52.458;20.914;2023-07-28T10:54:17;7.60;;;5.50;;
59416;SDS011;45222;52.458;20.914;2023-07-28T10:58:04;7.70;;;5.20;;
59416;SDS011;45222;52.458;20.914;2023-07-28T11:01:50;7.50;;;4.90;;
59416;SDS011;45222;52.458;20.914;2023-07-28T11:05:35;8.20;;;5.10;;
59416;SDS011;45222;52.458;20.914;2023-07-28T11:09:22;9.30;;;5.20;;
59416;SDS011;45222;52.458;20.914;2023-07-28T11:13:07;8.90;;;5.10;;
59416;SDS011;45222;52.458;20.914;2023-07-28T11:16:52;8.40;;;5.20;;
59416;SDS011;45222;52.458;20.914;2023-07-28T11:20:38;8.80;;;4.90;;
59416;SDS011;45222;52.458;20.914;2023-07-28T11:24:26;9.20;;;5.40;;
59416;SDS011;45222;52.458;20.914;2023-07-28T11:28:11;9.20;;;5.50;;
59416;SDS011;45222;52.458;20.914;2023-07-28T11:31:57;7.80;;;5.30;;
59416;SDS011;45222;52.458;20.914;2023-07-28T11:35:44;9.30;;;5.30;;
59416;SDS011;45222;52.458;20.914;2023-07-28T11:39:30;8.50;;;5.40;;
59416;SDS011;45222;52.458;20.914;2023-07-28T11:43:16;9.60;;;5.20;;
59416;SDS011;45222;52.458;20.914;2023-07-28T11:47:05;8.90;;;5.20;;
59416;SDS011;45222;52.458;20.914;2023-07-28T11:50:51;8.20;;;5.00;;
59416;SDS011;45222;52.458;20.914;2023-07-28T11:54:39;9.20;;;5.20;;
59416;SDS011;45222;52.458;20.914;2023-07-28T11:58:24;10.70;;;4.70;;
59416;SDS011;45222;52.458;20.914;2023-07-28T12:02:09;8.50;;;4.70;;
59416;SDS011;45222;52.458;20.914;2023-07-28T12:06:03;7.70;;;4.70;;
59416;SDS011;45222;52.458;20.914;2023-07-28T12:09:53;8.40;;;4.40;;
59416;SDS011;45222;52.458;20.914;2023-07-28T12:13:49;6.60;;;3.90;;
59416;SDS011;45222;52.458;20.914;2023-07-28T12:17:34;5.80;;;3.00;;
59416;SDS011;45222;52.458;20.914;2023-07-28T12:21:20;5.30;;;3.20;;
59416;SDS011;45222;52.458;20.914;2023-07-28T12:25:06;5.90;;;3.20;;
59416;SDS011;45222;52.458;20.914;2023-07-28T12:28:51;6.20;;;2.90;;
59416;SDS011;45222;52.458;20.914;2023-07-28T12:32:37;4.00;;;2.30;;
59416;SDS011;45222;52.458;20.914;2023-07-28T12:36:23;3.90;;;2.40;;
59416;SDS011;45222;52.458;20.914;2023-07-28T12:40:09;5.50;;;2.20;;
59416;SDS011;45222;52.458;20.914;2023-07-28T12:43:55;5.10;;;2.90;;
59416;SDS011;45222;52.458;20.914;2023-07-28T12:47:41;3.80;;;2.10;;
59416;SDS011;45222;52.458;20.914;2023-07-28T12:51:27;4.00;;;2.00;;
59416;SDS011;45222;52.458;20.914;2023-07-28T12:55:12;3.30;;;1.70;;
59416;SDS011;45222;52.458;20.914;2023-07-28T12:58:58;2.80;;;1.60;;
59416;SDS011;45222;52.458;20.914;2023-07-28T13:02:43;3.10;;;1.30;;
59416;SDS011;45222;52.458;20.914;2023-07-28T13:06:30;3.00;;;1.20;;
59416;SDS011;45222;52.458;20.914;2023-07-28T13:10:15;3.60;;;1.20;;
59416;SDS011;45222;52.458;20.914;2023-07-28T13:14:01;1.20;;;1.00;;
59416;SDS011;45222;52.458;20.914;2023-07-28T13:17:46;2.30;;;1.30;;
59416;SDS011;45222;52.458;20.914;2023-07-28T13:21:31;2.60;;;1.30;;
59416;SDS011;45222;52.458;20.914;2023-07-28T13:25:17;4.10;;;1.30;;
59416;SDS011;45222;52.458;20.914;2023-07-28T13:29:02;3.50;;;1.30;;
59416;SDS011;45222;52.458;20.914;2023-07-28T13:32:50;2.20;;;1.30;;
59416;SDS011;45222;52.458;20.914;2023-07-28T13:36:35;3.30;;;1.30;;
59416;SDS011;45222;52.458;20.914;2023-07-28T13:40:21;2.90;;;1.70;;
59416;SDS011;45222;52.458;20.914;2023-07-28T13:44:06;2.10;;;1.50;;
59416;SDS011;45222;52.458;20.914;2023-07-28T13:47:52;3.10;;;1.60;;
59416;SDS011;45222;52.458;20.914;2023-07-28T13:51:37;3.50;;;1.60;;
59416;SDS011;45222;52.458;20.914;2023-07-28T13:55:22;2.30;;;1.50;;
59416;SDS011;45222;52.458;20.914;2023-07-28T13:59:07;4.10;;;1.60;;
59416;SDS011;45222;52.458;20.914;2023-07-28T14:02:52;4.40;;;1.80;;
59416;SDS011;45222;52.458;20.914;2023-07-28T14:06:38;3.80;;;1.80;;
59416;SDS011;45222;52.458;20.914;2023-07-28T14:10:23;4.10;;;1.80;;
59416;SDS011;45222;52.458;20.914;2023-07-28T14:14:08;3.50;;;1.80;;
59416;SDS011;45222;52.458;20.914;2023-07-28T14:17:54;3.30;;;1.80;;
59416;SDS011;45222;52.458;20.914;2023-07-28T14:21:39;2.20;;;1.50;;
59416;SDS011;45222;52.458;20.914;2023-07-28T14:25:24;4.00;;;1.70;;
59416;SDS011;45222;52.458;20.914;2023-07-28T14:29:09;2.80;;;1.70;;
59416;SDS011;45222;52.458;20.914;2023-07-28T14:32:54;4.60;;;1.70;;
59416;SDS011;45222;52.458;20.914;2023-07-28T14:36:40;2.50;;;1.80;;
59416;SDS011;45222;52.458;20.914;2023-07-28T14:40:25;3.30;;;1.70;;
59416;SDS011;45222;52.458;20.914;2023-07-28T14:44:10;4.80;;;2.00;;
59416;SDS011;45222;52.458;20.914;2023-07-28T14:47:55;2.70;;;1.60;;
59416;SDS011;45222;52.458;20.914;2023-07-28T14:51:40;3.70;;;1.60;;
59416;SDS011;45222;52.458;20.914;2023-07-28T14:55:26;3.90;;;1.80;;
59416;SDS011;45222;52.458;20.914;2023-07-28T14:59:11;4.90;;;1.90;;
59416;SDS011;45222;52.458;20.914;2023-07-28T15:02:56;4.20;;;1.70;;
59416;SDS011;45222;52.458;20.914;2023-07-28T15:06:41;4.90;;;1.80;;
59416;SDS011;45222;52.458;20.914;2023-07-28T15:10:26;6.40;;;1.80;;
59416;SDS011;45222;52.458;20.914;2023-07-28T15:14:12;3.50;;;2.20;;
59416;SDS011;45222;52.458;20.914;2023-07-28T15:17:57;4.90;;;2.00;;
59416;SDS011;45222;52.458;20.914;2023-07-28T15:21:42;7.70;;;2.50;;
59416;SDS011;45222;52.458;20.914;2023-07-28T15:25:27;4.10;;;2.20;;
59416;SDS011;45222;52.458;20.914;2023-07-28T15:29:12;4.10;;;2.10;;
59416;SDS011;45222;52.458;20.914;2023-07-28T15:32:57;3.30;;;2.10;;
59416;SDS011;45222;52.458;20.914;2023-07-28T15:36:42;4.50;;;2.10;;
59416;SDS011;45222;52.458;20.914;2023-07-28T15:40:27;3.40;;;1.90;;
59416;SDS011;45222;52.458;20.914;2023-07-28T15:44:13;5.50;;;2.00;;
59416;SDS011;45222;52.458;20.914;2023-07-28T15:47:58;4.10;;;2.20;;
59416;SDS011;45222;52.458;20.914;2023-07-28T15:51:43;3.10;;;1.70;;
59416;SDS011;45222;52.458;20.914;2023-07-28T15:55:28;3.40;;;1.90;;
59416;SDS011;45222;52.458;20.914;2023-07-28T15:59:13;2.80;;;1.50;;
59416;SDS011;45222;52.458;20.914;2023-07-28T16:02:58;4.10;;;1.50;;
59416;SDS011;45222;52.458;20.914;2023-07-28T16:06:43;3.90;;;1.30;;
59416;SDS011;45222;52.458;20.914;2023-07-28T16:10:30;2.00;;;1.30;;
59416;SDS011;45222;52.458;20.914;2023-07-28T16:14:15;2.90;;;1.50;;
59416;SDS011;45222;52.458;20.914;2023-07-28T16:18:03;2.90;;;1.70;;
59416;SDS011;45222;52.458;20.914;2023-07-28T16:21:48;1.90;;;1.40;;
59416;SDS011;45222;52.458;20.914;2023-07-28T16:25:35;2.80;;;1.40;;
59416;SDS011;45222;52.458;20.914;2023-07-28T16:29:20;2.90;;;1.20;;
59416;SDS011;45222;52.458;20.914;2023-07-28T16:33:06;2.70;;;1.30;;
59416;SDS011;45222;52.458;20.914;2023-07-28T16:36:51;2.30;;;1.30;;
59416;SDS011;45222;52.458;20.914;2023-07-28T16:40:36;2.10;;;1.40;;
59416;SDS011;45222;52.458;20.914;2023-07-28T16:44:21;2.60;;;1.50;;
59416;SDS011;45222;52.458;20.914;2023-07-28T16:48:06;3.40;;;1.40;;
59416;SDS011;45222;52.458;20.914;2023-07-28T16:51:51;1.90;;;1.00;;
59416;SDS011;45222;52.458;20.914;2023-07-28T16:55:37;2.70;;;1.20;;
59416;SDS011;45222;52.458;20.914;2023-07-28T16:59:22;1.40;;;1.20;;
59416;SDS011;45222;52.458;20.914;2023-07-28T17:03:07;1.90;;;1.00;;
59416;SDS011;45222;52.458;20.914;2023-07-28T17:06:52;1.20;;;0.90;;
59416;SDS011;45222;52.458;20.914;2023-07-28T17:10:37;1.30;;;1.00;;
59416;SDS011;45222;52.458;20.914;2023-07-28T17:14:22;4.00;;;1.00;;
59416;SDS011;45222;52.458;20.914;2023-07-28T17:18:08;3.70;;;1.00;;
59416;SDS011;45222;52.458;20.914;2023-07-28T17:21:53;2.30;;;1.20;;
59416;SDS011;45222;52.458;20.914;2023-07-28T17:25:39;2.80;;;1.20;;
59416;SDS011;45222;52.458;20.914;2023-07-28T17:29:24;2.30;;;1.10;;
59416;SDS011;45222;52.458;20.914;2023-07-28T17:33:09;3.40;;;1.00;;
59416;SDS011;45222;52.458;20.914;2023-07-28T17:36:54;1.00;;;0.90;;
59416;SDS011;45222;52.458;20.914;2023-07-28T17:40:39;1.60;;;1.00;;
59416;SDS011;45222;52.458;20.914;2023-07-28T17:44:24;2.30;;;1.00;;
59416;SDS011;45222;52.458;20.914;2023-07-28T17:48:09;4.20;;;1.10;;
59416;SDS011;45222;52.458;20.914;2023-07-28T17:51:54;1.60;;;1.10;;
59416;SDS011;45222;52.458;20.914;2023-07-28T17:55:40;1.90;;;0.90;;
59416;SDS011;45222;52.458;20.914;2023-07-28T17:59:25;2.20;;;1.20;;
59416;SDS011;45222;52.458;20.914;2023-07-28T18:03:11;3.20;;;1.20;;
59416;SDS011;45222;52.458;20.914;2023-07-28T18:06:56;2.50;;;1.30;;
59416;SDS011;45222;52.458;20.914;2023-07-28T18:10:41;2.90;;;1.20;;
59416;SDS011;45222;52.458;20.914;2023-07-28T18:14:26;3.90;;;1.50;;
59416;SDS011;45222;52.458;20.914;2023-07-28T18:18:11;3.00;;;1.50;;
59416;SDS011;45222;52.458;20.914;2023-07-28T18:21:56;3.50;;;1.50;;
59416;SDS011;45222;52.458;20.914;2023-07-28T18:25:41;3.00;;;1.50;;
59416;SDS011;45222;52.458;20.914;2023-07-28T18:29:27;3.70;;;1.80;;
59416;SDS011;45222;52.458;20.914;2023-07-28T18:33:12;7.70;;;3.00;;
59416;SDS011;45222;52.458;20.914;2023-07-28T18:36:57;5.80;;;2.20;;
59416;SDS011;45222;52.458;20.914;2023-07-28T18:40:42;5.10;;;2.40;;
59416;SDS011;45222;52.458;20.914;2023-07-28T18:44:27;4.80;;;2.30;;
59416;SDS011;45222;52.458;20.914;2023-07-28T18:48:12;4.40;;;2.10;;
59416;SDS011;45222;52.458;20.914;2023-07-28T18:52:04;6.40;;;2.30;;
59416;SDS011;45222;52.458;20.914;2023-07-28T18:55:50;3.50;;;1.90;;
59416;SDS011;45222;52.458;20.914;2023-07-28T18:59:35;2.40;;;1.70;;
59416;SDS011;45222;52.458;20.914;2023-07-28T19:03:20;4.00;;;1.80;;
59416;SDS011;45222;52.458;20.914;2023-07-28T19:07:07;3.50;;;1.70;;
59416;SDS011;45222;52.458;20.914;2023-07-28T19:10:52;4.10;;;1.90;;
59416;SDS011;45222;52.458;20.914;2023-07-28T19:14:37;5.00;;;2.30;;
59416;SDS011;45222;52.458;20.914;2023-07-28T19:18:23;7.20;;;2.60;;
59416;SDS011;45222;52.458;20.914;2023-07-28T19:22:08;7.90;;;2.70;;
59416;SDS011;45222;52.458;20.914;2023-07-28T19:25:54;5.10;;;2.70;;
59416;SDS011;45222;52.458;20.914;2023-07-28T19:29:39;4.50;;;2.60;;
59416;SDS011;45222;52.458;20.914;2023-07-28T19:33:25;4.50;;;2.50;;
59416;SDS011;45222;52.458;20.914;2023-07-28T19:37:10;6.50;;;2.70;;
59416;SDS011;45222;52.458;20.914;2023-07-28T19:40:55;5.80;;;3.10;;
59416;SDS011;45222;52.458;20.914;2023-07-28T19:44:41;4.90;;;2.50;;
59416;SDS011;45222;52.458;20.914;2023-07-28T19:48:26;7.20;;;2.70;;
59416;SDS011;45222;52.458;20.914;2023-07-28T19:52:13;5.50;;;2.80;;
59416;SDS011;45222;52.458;20.914;2023-07-28T19:55:58;4.40;;;2.50;;
59416;SDS011;45222;52.458;20.914;2023-07-28T19:59:43;5.10;;;2.40;;
59416;SDS011;45222;52.458;20.914;2023-07-28T20:03:28;4.50;;;2.70;;
59416;SDS011;45222;52.458;20.914;2023-07-28T20:07:13;5.10;;;3.00;;
59416;SDS011;45222;52.458;20.914;2023-07-28T20:11:06;5.70;;;2.70;;
59416;SDS011;45222;52.458;20.914;2023-07-28T20:14:51;6.00;;;2.80;;
59416;SDS011;45222;52.458;20.914;2023-07-28T20:18:39;6.10;;;3.00;;
59416;SDS011;45222;52.458;20.914;2023-07-28T20:22:29;6.70;;;2.80;;
59416;SDS011;45222;52.458;20.914;2023-07-28T20:26:15;5.70;;;3.10;;
59416;SDS011;45222;52.458;20.914;2023-07-28T20:30:01;6.60;;;2.90;;
59416;SDS011;45222;52.458;20.914;2023-07-28T20:33:47;6.00;;;3.20;;
59416;SDS011;45222;52.458;20.914;2023-07-28T20:37:32;7.60;;;3.20;;
59416;SDS011;45222;52.458;20.914;2023-07-28T20:41:18;7.30;;;3.10;;
59416;SDS011;45222;52.458;20.914;2023-07-28T20:45:04;6.50;;;3.20;;
59416;SDS011;45222;52.458;20.914;2023-07-28T20:48:51;7.00;;;3.20;;
59416;SDS011;45222;52.458;20.914;2023-07-28T20:52:36;6.10;;;3.20;;
59416;SDS011;45222;52.458;20.914;2023-07-28T20:56:21;7.70;;;3.70;;
59416;SDS011;45222;52.458;20.914;2023-07-28T21:00:07;7.20;;;3.50;;
59416;SDS011;45222;52.458;20.914;2023-07-28T21:03:55;8.50;;;3.40;;
59416;SDS011;45222;52.458;20.914;2023-07-28T21:07:40;6.80;;;3.40;;
59416;SDS011;45222;52.458;20.914;2023-07-28T21:11:25;7.70;;;3.80;;
59416;SDS011;45222;52.458;20.914;2023-07-28T21:15:11;6.90;;;3.20;;
59416;SDS011;45222;52.458;20.914;2023-07-28T21:18:57;9.30;;;3.40;;
59416;SDS011;45222;52.458;20.914;2023-07-28T21:22:42;6.50;;;3.10;;
59416;SDS011;45222;52.458;20.914;2023-07-28T21:26:28;7.70;;;3.00;;
59416;SDS011;45222;52.458;20.914;2023-07-28T21:30:13;6.80;;;3.20;;
59416;SDS011;45222;52.458;20.914;2023-07-28T21:33:59;7.70;;;3.40;;
59416;SDS011;45222;52.458;20.914;2023-07-28T21:37:44;7.00;;;3.20;;
59416;SDS011;45222;52.458;20.914;2023-07-28T21:41:29;8.40;;;3.40;;
59416;SDS011;45222;52.458;20.914;2023-07-28T21:45:15;6.20;;;3.70;;
59416;SDS011;45222;52.458;20.914;2023-07-28T21:49:02;9.80;;;3.50;;
59416;SDS011;45222;52.458;20.914;2023-07-28T21:52:47;8.80;;;3.30;;
59416;SDS011;45222;52.458;20.914;2023-07-28T21:56:32;9.50;;;3.40;;
59416;SDS011;45222;52.458;20.914;2023-07-28T22:00:18;8.40;;;3.80;;
59416;SDS011;45222;52.458;20.914;2023-07-28T22:04:03;7.00;;;3.90;;
59416;SDS011;45222;52.458;20.914;2023-07-28T22:07:49;12.30;;;5.20;;
59416;SDS011;45222;52.458;20.914;2023-07-28T22:11:35;12.90;;;5.10;;
59416;SDS011;45222;52.458;20.914;2023-07-28T22:15:20;23.80;;;5.80;;
59416;SDS011;45222;52.458;20.914;2023-07-28T22:19:05;17.60;;;6.40;;